Terminal Aerodrome Forecast
Issued by NWS Wilmington, OH

Current Version | Previous Version | Graphics & Text | Print | Product List | Glossary On
Versions: 1 2 3 4 5 6 7 8 9 10 11 12 13 14 15 16 17 18 19 20
000
FTUS41 KILN 031700
TAFCMH
TAF
KCMH 031726Z 0318/0418 21012KT P6SM BKN070
     FM040000 17005KT P6SM FEW060 SCT150
     FM041500 22011G19KT P6SM FEW050 SCT120=

USA.gov is the U.S. government's official web portal to all federal, state and local government web resources and services.